Terminal Aerodrome Forecast
Issued by NWS

Home | Current Version | Previous Version | Text Only | Print | Product List | Glossary Off
Versions: 1 2 3 4 5 6 7 8 9 10 11 12 13 14 15 16 17 18 19 20

000
FTUS43 KGRB 241700
TAFMTW
TAF
KMTW 241736Z 2418/2518 27008KT P6SM SCT020 BKN035
     FM242300 34006KT P6SM BKN020 OVC035
     FM250200 04009KT 6SM -SN BKN015 OVC030
      TEMPO 2502/2505 3SM -SN
     FM250500 04012G20KT P6SM OVC016
     FM251200 04012G20KT P6SM BKN020=

USA.gov is the U.S. government's official web portal to all federal, state and local government web resources and services.